createdAt,value
2023-01-29T00:01:21.508Z,65.71
2023-01-29T00:01:56.345Z,64.69
2023-01-29T00:02:31.922Z,64.05
2023-01-29T00:03:05.734Z,63.22
2023-01-29T00:03:39.034Z,61.91
2023-01-29T00:04:49.899Z,59.54
2023-01-29T00:07:17.640Z,54.91
2023-01-29T00:07:50.573Z,55.23
2023-01-29T00:09:01.160Z,55.99
2023-01-29T00:09:34.058Z,56.54
2023-01-29T00:10:07.290Z,57.12
2023-01-29T00:10:40.191Z,57.54
2023-01-29T00:12:29.208Z,58.75
2023-01-29T00:13:39.822Z,60.21
2023-01-29T00:14:45.479Z,60.89
2023-01-29T00:15:18.670Z,61.28
2023-01-29T00:15:58.105Z,61.55
2023-01-29T00:16:30.985Z,61.72
2023-01-29T00:17:41.654Z,62.64
2023-01-29T00:18:14.568Z,63.52
2023-01-29T00:18:47.393Z,64.20
2023-01-29T00:19:58.039Z,63.18
2023-01-29T00:20:31.381Z,62.65
2023-01-29T00:22:19.830Z,59.71
2023-01-29T00:23:30.452Z,55.69
2023-01-29T00:24:41.207Z,54.14
2023-01-29T00:27:07.591Z,55.40
2023-01-29T00:27:40.457Z,56.16
2023-01-29T00:29:28.850Z,58.08
2023-01-29T00:30:13.134Z,58.60
2023-01-29T00:30:46.160Z,58.57
2023-01-29T00:31:21.093Z,59.52
2023-01-29T00:31:54.115Z,60.19
2023-01-29T00:32:27.023Z,60.52
2023-01-29T00:33:37.659Z,61.05
2023-01-29T00:34:10.514Z,61.56
2023-01-29T00:35:21.072Z,62.23
2023-01-29T00:37:47.093Z,64.89
2023-01-29T00:38:58.955Z,62.73
2023-01-29T00:39:47.489Z,61.40
2023-01-29T00:41:17.302Z,59.41
2023-01-29T00:42:08.671Z,56.59
2023-01-29T00:43:00.150Z,54.80
2023-01-29T00:43:51.419Z,54.57
2023-01-29T00:44:42.888Z,54.50
2023-01-29T00:46:31.374Z,56.74
2023-01-29T00:48:59.530Z,59.21
2023-01-29T00:50:49.615Z,60.38
2023-01-29T00:52:18.836Z,61.25
2023-01-29T00:53:30.772Z,61.84
2023-01-29T00:55:57.748Z,65.02
2023-01-29T00:57:08.453Z,63.74
2023-01-29T00:57:41.342Z,62.02
2023-01-29T00:58:51.960Z,59.42
2023-01-29T01:01:42.877Z,55.51
2023-01-29T01:02:34.097Z,56.03
2023-01-29T01:03:07.176Z,56.06
2023-01-29T01:03:42.471Z,56.98
2023-01-29T01:04:15.481Z,57.58
2023-01-29T01:06:06.027Z,59.14
2023-01-29T01:06:39.777Z,59.43
2023-01-29T01:07:48.967Z,60.81
2023-01-29T01:08:40.271Z,61.30
2023-01-29T01:09:31.794Z,61.10
2023-01-29T01:11:43.326Z,62.51
2023-01-29T01:13:34.334Z,64.94
2023-01-29T01:14:45.391Z,62.47
2023-01-29T01:15:18.759Z,61.35
2023-01-29T01:15:53.396Z,60.59
2023-01-29T01:17:42.775Z,55.58
2023-01-29T01:18:16.327Z,54.87
2023-01-29T01:18:49.269Z,54.55
2023-01-29T01:19:22.211Z,54.72
2023-01-29T01:21:08.645Z,56.06
2023-01-29T01:22:23.252Z,57.10
2023-01-29T01:23:34.490Z,58.59
2023-01-29T01:26:01.996Z,60.51
2023-01-29T01:27:13.315Z,61.00
2023-01-29T01:28:24.186Z,61.82
2023-01-29T01:28:59.874Z,62.24
2023-01-29T01:29:32.938Z,63.02
2023-01-29T01:30:06.435Z,63.67
2023-01-29T01:30:39.365Z,64.32
2023-01-29T01:31:52.954Z,64.57
2023-01-29T01:32:26.242Z,62.09
2023-01-29T01:32:59.474Z,61.54
2023-01-29T01:33:32.417Z,60.54
2023-01-29T01:34:45.378Z,56.61
2023-01-29T01:35:18.418Z,55.09
2023-01-29T01:35:51.338Z,54.71
2023-01-29T01:37:40.008Z,54.95
2023-01-29T01:38:50.707Z,56.01
2023-01-29T01:40:03.354Z,57.05
2023-01-29T01:40:36.471Z,57.85
2023-01-29T01:41:09.327Z,58.34
2023-01-29T01:43:57.815Z,59.88
2023-01-29T01:45:14.828Z,59.92
2023-01-29T01:45:48.607Z,59.96
2023-01-29T01:46:22.168Z,61.28
2023-01-29T01:46:55.044Z,62.12
2023-01-29T01:47:35.738Z,62.66
2023-01-29T01:48:38.238Z,63.77
2023-01-29T01:49:18.564Z,66.38
2023-01-29T01:50:42.786Z,64.13
2023-01-29T01:51:16.895Z,62.81
2023-01-29T01:51:50.717Z,60.70
2023-01-29T01:53:09.223Z,57.09
2023-01-29T01:54:28.093Z,54.58
2023-01-29T01:55:43.160Z,54.88
2023-01-29T01:56:18.525Z,55.44
2023-01-29T01:57:33.364Z,56.17
2023-01-29T02:00:51.357Z,59.35
2023-01-29T02:01:28.247Z,59.94
2023-01-29T02:02:20.001Z,60.30
2023-01-29T02:03:11.605Z,60.22
2023-01-29T02:04:09.038Z,60.50
2023-01-29T02:05:03.527Z,61.13
2023-01-29T02:05:55.193Z,61.30
2023-01-29T02:06:46.409Z,61.99
2023-01-29T02:07:37.925Z,63.03
2023-01-29T02:08:29.251Z,66.24
2023-01-29T02:09:33.702Z,66.71
2023-01-29T02:11:26.686Z,60.60
2023-01-29T02:11:59.629Z,58.97
2023-01-29T02:12:32.634Z,57.55
2023-01-29T02:13:06.112Z,56.07
2023-01-29T02:14:16.903Z,54.83
2023-01-29T02:14:49.882Z,55.15
2023-01-29T02:16:38.507Z,56.45
2023-01-29T02:17:13.513Z,56.87
2023-01-29T02:17:48.472Z,57.44
2023-01-29T02:18:59.528Z,58.78
2023-01-29T02:19:47.431Z,59.24
2023-01-29T02:20:26.224Z,59.70
2023-01-29T02:21:04.998Z,60.19
2023-01-29T02:21:59.828Z,60.68
2023-01-29T02:22:38.168Z,61.04
2023-01-29T02:23:48.152Z,61.92
2023-01-29T02:24:43.951Z,62.37
2023-01-29T02:26:20.783Z,63.95
2023-01-29T02:27:11.832Z,65.88
2023-01-29T02:28:07.474Z,62.98
2023-01-29T02:28:43.196Z,62.61
2023-01-29T02:29:27.303Z,60.67
2023-01-29T02:30:03.919Z,58.18
2023-01-29T02:30:40.786Z,56.95
2023-01-29T02:32:39.128Z,55.98
2023-01-29T02:34:01.789Z,57.77
2023-01-29T02:35:02.957Z,58.68
2023-01-29T02:35:42.785Z,58.98
2023-01-29T02:36:22.805Z,60.18
2023-01-29T02:37:08.319Z,60.73
2023-01-29T02:38:07.734Z,61.55
2023-01-29T02:38:45.894Z,62.30
2023-01-29T02:39:27.813Z,63.41
2023-01-29T02:40:33.705Z,63.98
2023-01-29T02:41:12.952Z,63.48
2023-01-29T02:41:57.316Z,64.25
2023-01-29T02:42:40.451Z,61.77
2023-01-29T02:43:38.641Z,61.29
2023-01-29T02:44:23.273Z,59.02
2023-01-29T02:45:17.762Z,58.07
2023-01-29T02:46:38.134Z,56.71
2023-01-29T02:47:18.042Z,57.30
2023-01-29T02:48:01.285Z,59.13
2023-01-29T02:48:43.308Z,59.31
2023-01-29T02:49:23.000Z,60.00
2023-01-29T02:49:57.623Z,61.37
2023-01-29T02:50:43.581Z,62.37
2023-01-29T02:51:22.177Z,62.89
2023-01-29T02:53:16.256Z,64.44
2023-01-29T02:54:35.208Z,63.37
2023-01-29T02:55:17.705Z,61.58
2023-01-29T02:55:53.844Z,61.78
2023-01-29T02:56:53.327Z,59.97
2023-01-29T02:57:30.863Z,58.18
2023-01-29T02:58:49.895Z,58.00
2023-01-29T03:00:14.127Z,59.14
2023-01-29T03:00:48.161Z,60.21
2023-01-29T03:02:05.313Z,62.00
2023-01-29T03:02:39.477Z,63.00
2023-01-29T03:04:04.763Z,65.00
2023-01-29T03:04:42.769Z,65.03
2023-01-29T03:05:17.895Z,64.54
2023-01-29T03:06:18.332Z,62.86
2023-01-29T03:06:57.303Z,62.62
2023-01-29T03:07:46.031Z,62.41
2023-01-29T03:09:45.843Z,59.86
2023-01-29T03:10:21.858Z,58.50
2023-01-29T03:10:57.253Z,57.66
2023-01-29T03:11:34.354Z,57.73
2023-01-29T03:12:28.495Z,57.95
2023-01-29T03:13:16.751Z,58.28
2023-01-29T03:13:53.899Z,59.10
2023-01-29T03:14:52.622Z,60.66
2023-01-29T03:15:29.733Z,61.24
2023-01-29T03:16:06.472Z,62.47
2023-01-29T03:16:40.316Z,64.10
2023-01-29T03:18:57.191Z,65.67
2023-01-29T03:19:36.358Z,65.85
2023-01-29T03:20:13.668Z,65.54
2023-01-29T03:20:50.965Z,63.62
2023-01-29T03:21:53.092Z,61.91
2023-01-29T03:22:26.189Z,62.65
2023-01-29T03:24:00.073Z,58.68
2023-01-29T03:25:03.386Z,57.79
2023-01-29T03:25:54.904Z,57.23
2023-01-29T03:26:46.463Z,58.48
2023-01-29T03:27:39.319Z,59.69
2023-01-29T03:28:31.828Z,59.96
2023-01-29T03:29:23.388Z,61.41
2023-01-29T03:30:15.126Z,62.63
2023-01-29T03:31:09.477Z,64.10
2023-01-29T03:32:00.992Z,64.76
2023-01-29T03:32:36.144Z,64.58
2023-01-29T03:33:09.734Z,64.61
2023-01-29T03:34:04.732Z,64.06
2023-01-29T03:35:33.557Z,61.30
2023-01-29T03:36:09.216Z,60.58
2023-01-29T03:37:45.750Z,59.31
2023-01-29T03:38:18.659Z,58.20
2023-01-29T03:38:51.515Z,57.73
2023-01-29T03:39:25.944Z,57.76
2023-01-29T03:39:58.854Z,58.18
2023-01-29T03:40:35.763Z,58.84
2023-01-29T03:41:19.619Z,59.51
2023-01-29T03:42:30.158Z,60.24
2023-01-29T03:44:08.727Z,61.93
2023-01-29T03:44:56.347Z,63.40
2023-01-29T03:45:37.055Z,65.73
2023-01-29T03:46:37.010Z,64.66
2023-01-29T03:47:37.004Z,65.78
2023-01-29T03:48:29.288Z,64.32
2023-01-29T03:49:08.426Z,62.78
2023-01-29T03:49:52.771Z,61.24
2023-01-29T03:51:16.992Z,59.63
2023-01-29T03:52:01.488Z,58.00
2023-01-29T03:53:00.045Z,57.10
2023-01-29T03:53:41.224Z,57.33
2023-01-29T03:54:27.915Z,58.60
2023-01-29T03:55:39.084Z,59.21
2023-01-29T03:56:38.080Z,59.55
2023-01-29T03:57:19.819Z,62.00
2023-01-29T03:59:12.485Z,65.28
2023-01-29T03:59:56.851Z,65.38
2023-01-29T04:00:36.361Z,65.29
2023-01-29T04:01:17.167Z,62.63
2023-01-29T04:02:37.543Z,61.06
2023-01-29T04:04:39.388Z,59.84
2023-01-29T04:05:16.386Z,57.93
2023-01-29T04:06:01.876Z,56.96
2023-01-29T04:06:36.019Z,56.40
2023-01-29T04:07:08.834Z,56.97
2023-01-29T04:07:41.897Z,57.14
2023-01-29T04:08:21.521Z,57.76
2023-01-29T04:09:01.130Z,58.41
2023-01-29T04:09:48.683Z,59.40
2023-01-29T04:11:02.142Z,61.19
2023-01-29T04:11:36.576Z,60.99
2023-01-29T04:12:54.291Z,63.36
2023-01-29T04:13:27.131Z,64.42
2023-01-29T04:14:37.851Z,64.57
2023-01-29T04:16:33.940Z,62.81
2023-01-29T04:17:13.190Z,62.34
2023-01-29T04:17:51.747Z,60.98
2023-01-29T04:18:25.194Z,61.00
2023-01-29T04:18:58.186Z,59.08
2023-01-29T04:19:31.111Z,58.05
2023-01-29T04:20:42.159Z,56.54
2023-01-29T04:21:15.545Z,56.83
2023-01-29T04:21:48.800Z,57.34
2023-01-29T04:22:21.679Z,58.07
2023-01-29T04:24:10.206Z,60.60
2023-01-29T04:26:29.900Z,62.92
2023-01-29T04:27:27.607Z,64.99
2023-01-29T04:28:36.302Z,65.11
2023-01-29T04:29:16.394Z,64.82
2023-01-29T04:30:01.189Z,62.92
2023-01-29T04:30:58.543Z,61.86
2023-01-29T04:32:01.105Z,61.89
2023-01-29T04:33:35.977Z,59.22
2023-01-29T04:34:18.553Z,56.71
2023-01-29T04:35:02.025Z,56.28
2023-01-29T04:36:11.467Z,56.43
2023-01-29T04:37:03.195Z,57.70
2023-01-29T04:37:50.618Z,58.23
2023-01-29T04:38:41.568Z,60.27
2023-01-29T04:39:53.173Z,60.72
2023-01-29T04:40:27.742Z,61.95
2023-01-29T04:42:33.455Z,66.03
2023-01-29T04:43:24.112Z,65.71
2023-01-29T04:44:00.120Z,65.77
2023-01-29T04:44:51.090Z,64.35
2023-01-29T04:45:30.565Z,62.53
2023-01-29T04:47:26.573Z,63.07
2023-01-29T04:49:01.298Z,61.28
2023-01-29T04:49:49.967Z,58.71
2023-01-29T04:50:28.463Z,56.73
2023-01-29T04:51:51.634Z,56.74
2023-01-29T04:52:26.115Z,56.87
2023-01-29T04:53:03.969Z,58.46
2023-01-29T04:53:47.123Z,59.51
2023-01-29T04:54:48.797Z,60.80
2023-01-29T04:56:28.449Z,63.03
2023-01-29T04:58:19.295Z,66.10
2023-01-29T04:59:13.507Z,65.27
2023-01-29T04:59:48.936Z,62.93
2023-01-29T05:00:28.001Z,61.60
2023-01-29T05:01:01.207Z,60.63
2023-01-29T05:02:49.935Z,60.08
2023-01-29T05:04:03.633Z,57.05
2023-01-29T05:04:37.236Z,56.68
2023-01-29T05:05:10.044Z,57.13
2023-01-29T05:06:23.186Z,57.99
2023-01-29T05:06:56.040Z,59.26
2023-01-29T05:07:28.895Z,60.04
2023-01-29T05:08:39.565Z,61.81
2023-01-29T05:09:13.733Z,62.92
2023-01-29T05:09:46.669Z,64.01
2023-01-29T05:10:59.265Z,65.23
2023-01-29T05:11:32.635Z,65.03
2023-01-29T05:12:09.502Z,63.59
2023-01-29T05:12:43.783Z,62.84
2023-01-29T05:13:16.649Z,62.51
2023-01-29T05:13:49.653Z,61.64
2023-01-29T05:14:22.678Z,60.45
2023-01-29T05:15:37.695Z,59.33
2023-01-29T05:16:41.959Z,58.16
2023-01-29T05:17:16.911Z,57.35
2023-01-29T05:18:27.725Z,58.02
2023-01-29T05:19:38.260Z,60.41
2023-01-29T05:20:11.893Z,61.14
2023-01-29T05:21:23.532Z,62.67
2023-01-29T05:21:56.405Z,63.88
2023-01-29T05:23:18.644Z,65.20
2023-01-29T05:24:09.057Z,64.49
2023-01-29T05:24:41.955Z,64.84
2023-01-29T05:26:31.475Z,61.60
2023-01-29T05:27:22.575Z,61.19
2023-01-29T05:28:42.684Z,59.54
2023-01-29T05:31:48.720Z,59.66
2023-01-29T05:32:59.389Z,61.58
2023-01-29T05:34:10.383Z,63.30
2023-01-29T05:36:38.733Z,65.22
2023-01-29T05:37:49.394Z,64.29
2023-01-29T05:39:00.613Z,61.68
2023-01-29T05:40:11.601Z,60.43
2023-01-29T05:40:47.689Z,59.27
2023-01-29T05:41:21.187Z,58.77
2023-01-29T05:42:32.024Z,57.92
2023-01-29T05:43:05.887Z,58.31
2023-01-29T05:43:38.827Z,58.62
2023-01-29T05:45:35.986Z,61.03
2023-01-29T05:46:47.188Z,63.34
2023-01-29T05:47:21.114Z,64.26
2023-01-29T05:47:58.096Z,64.84
2023-01-29T05:48:32.421Z,65.30
2023-01-29T05:49:05.817Z,65.22
2023-01-29T05:49:38.982Z,64.31
2023-01-29T05:51:28.252Z,60.32
2023-01-29T05:52:01.430Z,59.73
2023-01-29T05:53:12.286Z,58.59
2023-01-29T05:54:23.018Z,57.95
2023-01-29T05:54:56.019Z,57.87
2023-01-29T05:55:29.917Z,58.36
2023-01-29T05:57:19.375Z,60.56
2023-01-29T05:57:52.352Z,61.64
2023-01-29T05:59:03.414Z,63.55
2023-01-29T05:59:36.490Z,64.50
2023-01-29T06:00:47.959Z,64.85
2023-01-29T06:02:00.968Z,63.45
2023-01-29T06:03:50.026Z,61.47
2023-01-29T06:05:00.724Z,59.22
2023-01-29T06:06:11.863Z,57.66
2023-01-29T06:07:22.616Z,58.19
2023-01-29T06:07:55.591Z,58.79
2023-01-29T06:08:28.569Z,59.31
2023-01-29T06:09:39.325Z,61.38
2023-01-29T06:12:08.129Z,64.91
2023-01-29T06:12:41.901Z,64.06
2023-01-29T06:15:08.970Z,61.45
2023-01-29T06:15:42.039Z,60.63
2023-01-29T06:17:30.880Z,57.94
2023-01-29T06:19:20.867Z,58.10
2023-01-29T06:19:53.826Z,58.76
2023-01-29T06:20:26.702Z,59.74
2023-01-29T06:21:03.818Z,60.46
2023-01-29T06:21:36.744Z,60.96
2023-01-29T06:22:09.817Z,61.83
2023-01-29T06:23:20.573Z,63.50
2023-01-29T06:24:33.026Z,64.72
2023-01-29T06:25:07.180Z,64.79
2023-01-29T06:26:17.932Z,64.66
2023-01-29T06:27:28.581Z,62.34
2023-01-29T06:28:39.438Z,60.29
2023-01-29T06:29:12.527Z,59.09
2023-01-29T06:31:42.738Z,58.43
2023-01-29T06:32:16.035Z,59.09
2023-01-29T06:32:49.201Z,60.02
2023-01-29T06:34:00.102Z,61.78
2023-01-29T06:35:48.812Z,64.77
2023-01-29T06:36:59.468Z,64.31
2023-01-29T06:38:47.988Z,61.87
2023-01-29T06:39:58.545Z,60.50
2023-01-29T06:41:13.062Z,59.25
2023-01-29T06:41:46.497Z,58.71
2023-01-29T06:42:20.698Z,58.51
2023-01-29T06:42:53.673Z,58.56
2023-01-29T06:43:26.508Z,59.03
2023-01-29T06:43:59.325Z,59.48
2023-01-29T06:45:10.790Z,61.56
2023-01-29T06:45:57.517Z,62.30
2023-01-29T06:47:08.450Z,64.28
2023-01-29T06:47:41.419Z,65.06
2023-01-29T06:48:52.278Z,64.03
2023-01-29T06:50:03.502Z,62.54
2023-01-29T06:50:36.522Z,62.10
2023-01-29T06:51:10.012Z,61.18
2023-01-29T06:52:20.872Z,60.27
2023-01-29T06:53:31.932Z,58.69
2023-01-29T06:54:06.662Z,58.18
2023-01-29T06:54:39.621Z,58.18
2023-01-29T06:55:12.616Z,58.41
2023-01-29T06:55:51.608Z,59.12
2023-01-29T06:56:24.593Z,59.59
2023-01-29T06:56:57.562Z,60.66
2023-01-29T06:58:11.929Z,62.40
2023-01-29T07:00:38.566Z,65.51
2023-01-29T07:01:50.006Z,63.10
2023-01-29T07:04:19.617Z,60.54
2023-01-29T07:05:31.024Z,59.10
2023-01-29T07:07:20.621Z,58.47
2023-01-29T07:08:31.622Z,59.90
2023-01-29T07:09:42.690Z,61.01
2023-01-29T07:10:16.047Z,62.16
2023-01-29T07:10:49.812Z,63.56
2023-01-29T07:12:00.530Z,64.76
2023-01-29T07:12:33.493Z,64.86
2023-01-29T07:13:06.463Z,64.50
2023-01-29T07:13:39.441Z,63.57
2023-01-29T07:14:50.199Z,62.02
2023-01-29T07:16:39.745Z,60.29
2023-01-29T07:17:12.745Z,59.58
2023-01-29T07:17:56.263Z,58.66
2023-01-29T07:18:29.857Z,57.81
2023-01-29T07:19:02.847Z,57.94
2023-01-29T07:19:35.910Z,58.40
2023-01-29T07:20:09.628Z,58.95
2023-01-29T07:21:20.760Z,60.41
2023-01-29T07:22:31.922Z,61.94
2023-01-29T07:24:58.773Z,64.89
2023-01-29T07:25:31.840Z,64.70
2023-01-29T07:28:01.313Z,60.92
2023-01-29T07:28:38.265Z,60.03
2023-01-29T07:29:11.386Z,59.69
2023-01-29T07:31:37.809Z,57.79
2023-01-29T07:32:11.196Z,57.95
2023-01-29T07:34:37.331Z,61.07
2023-01-29T07:35:10.708Z,61.89
2023-01-29T07:40:10.645Z,62.26
2023-01-29T07:41:21.501Z,61.79
2023-01-29T07:42:32.155Z,59.12
2023-01-29T07:43:06.460Z,58.11
2023-01-29T07:43:39.323Z,57.37
2023-01-29T07:44:49.913Z,57.04
2023-01-29T07:47:19.094Z,60.39
2023-01-29T07:47:53.993Z,61.20
2023-01-29T07:48:26.977Z,62.59
2023-01-29T07:49:37.732Z,64.11
2023-01-29T07:50:56.295Z,64.77
2023-01-29T07:52:07.136Z,62.57
2023-01-29T07:52:40.109Z,61.70
2023-01-29T07:53:16.257Z,60.71
2023-01-29T07:54:27.013Z,59.86
2023-01-29T07:55:00.021Z,58.57
2023-01-29T07:56:48.736Z,56.89
2023-01-29T07:58:01.212Z,58.54
2023-01-29T07:59:14.108Z,59.64
2023-01-29T07:59:47.131Z,60.81
2023-01-29T08:00:21.119Z,61.32
2023-01-29T08:01:32.004Z,62.79
2023-01-29T08:02:42.838Z,64.68
2023-01-29T08:03:17.669Z,64.50
2023-01-29T08:03:51.508Z,63.55
2023-01-29T08:05:40.414Z,61.45
2023-01-29T08:06:51.157Z,58.61
2023-01-29T08:07:24.030Z,57.55
2023-01-29T08:08:06.192Z,56.60
2023-01-29T08:08:39.806Z,56.54
2023-01-29T08:09:12.779Z,57.58
2023-01-29T08:09:48.032Z,58.25
2023-01-29T08:10:21.136Z,59.16
2023-01-29T08:10:54.159Z,59.53
2023-01-29T08:11:27.129Z,60.19
2023-01-29T08:12:37.885Z,61.55
2023-01-29T08:13:10.963Z,62.71
2023-01-29T08:14:59.914Z,64.66
2023-01-29T08:16:10.717Z,63.38
2023-01-29T08:17:59.320Z,60.81
2023-01-29T08:19:10.295Z,58.74
2023-01-29T08:21:01.346Z,57.32
2023-01-29T08:22:50.034Z,59.54
2023-01-29T08:23:23.109Z,60.01
2023-01-29T08:23:56.201Z,60.92
2023-01-29T08:25:21.059Z,62.06
2023-01-29T08:25:54.120Z,63.23
2023-01-29T08:26:27.541Z,64.28
2023-01-29T08:27:38.291Z,64.39
2023-01-29T08:28:49.873Z,63.34
2023-01-29T08:30:00.945Z,61.06
2023-01-29T08:30:34.289Z,60.29
2023-01-29T08:31:16.713Z,59.15
2023-01-29T08:31:49.814Z,57.80
2023-01-29T08:32:22.862Z,56.99
2023-01-29T08:33:39.195Z,57.59
2023-01-29T08:35:28.309Z,59.24
2023-01-29T08:37:17.060Z,62.19
2023-01-29T08:37:54.846Z,62.51
2023-01-29T08:38:28.230Z,63.48
2023-01-29T08:39:01.208Z,64.30
2023-01-29T08:39:34.657Z,64.08
2023-01-29T08:40:09.668Z,63.71
2023-01-29T08:41:20.665Z,62.19
2023-01-29T08:42:32.940Z,59.65
2023-01-29T08:43:08.644Z,58.68
2023-01-29T08:44:20.010Z,56.87
2023-01-29T08:44:52.961Z,56.95
2023-01-29T08:46:06.953Z,57.77
2023-01-29T08:46:41.085Z,58.38
2023-01-29T08:48:30.550Z,60.42
2023-01-29T08:50:59.131Z,63.51
2023-01-29T08:52:09.900Z,63.71
2023-01-29T08:52:43.577Z,62.89
2023-01-29T08:53:16.652Z,62.14
2023-01-29T08:54:27.411Z,60.35
2023-01-29T08:55:00.390Z,59.43
2023-01-29T08:55:37.600Z,58.63
2023-01-29T08:56:48.621Z,56.78
2023-01-29T08:57:59.483Z,57.78
2023-01-29T08:58:32.455Z,58.46
2023-01-29T08:59:43.318Z,60.07
2023-01-29T09:00:17.163Z,60.77
2023-01-29T09:01:28.195Z,61.77
2023-01-29T09:02:01.151Z,62.40
2023-01-29T09:03:50.719Z,64.44
2023-01-29T09:06:19.298Z,62.30
2023-01-29T09:09:19.221Z,56.94
2023-01-29T09:09:52.195Z,56.35
2023-01-29T09:11:41.246Z,57.00
2023-01-29T09:12:52.135Z,58.31
2023-01-29T09:14:03.125Z,60.13
2023-01-29T09:14:36.144Z,60.64
2023-01-29T09:15:09.939Z,60.97
2023-01-29T09:15:42.921Z,61.77
2023-01-29T09:16:15.929Z,62.22
2023-01-29T09:16:48.983Z,63.15
2023-01-29T09:18:04.129Z,64.11
2023-01-29T09:18:37.102Z,63.48
2023-01-29T09:19:10.048Z,63.12
2023-01-29T09:20:20.937Z,60.97
2023-01-29T09:22:11.818Z,57.75
2023-01-29T09:22:45.783Z,57.21
2023-01-29T09:23:18.680Z,57.43
2023-01-29T09:23:51.565Z,57.86
2023-01-29T09:26:21.002Z,60.16
2023-01-29T09:27:31.943Z,61.37
2023-01-29T09:28:06.419Z,61.75
2023-01-29T09:28:39.311Z,61.97
2023-01-29T09:29:50.176Z,63.40
2023-01-29T09:31:02.846Z,63.21
2023-01-29T09:31:36.073Z,63.12
2023-01-29T09:32:09.132Z,62.05
2023-01-29T09:32:57.260Z,61.09
2023-01-29T09:34:09.143Z,57.60
2023-01-29T09:34:42.218Z,56.68
2023-01-29T09:35:52.984Z,56.95
2023-01-29T09:36:25.949Z,57.36
2023-01-29T09:36:58.864Z,57.60
2023-01-29T09:38:10.381Z,58.80
2023-01-29T09:39:21.162Z,60.28
2023-01-29T09:39:54.148Z,60.66
2023-01-29T09:40:45.943Z,61.32
2023-01-29T09:41:21.784Z,61.58
2023-01-29T09:42:07.866Z,62.10
2023-01-29T09:42:46.405Z,62.81
2023-01-29T09:43:40.074Z,63.78
2023-01-29T09:44:37.779Z,64.42
2023-01-29T09:45:12.484Z,62.94
2023-01-29T09:45:53.046Z,61.55
2023-01-29T09:46:33.695Z,60.02
2023-01-29T09:47:07.897Z,59.07
2023-01-29T09:47:40.873Z,57.59
2023-01-29T09:48:13.781Z,57.02
2023-01-29T09:48:46.714Z,56.57
2023-01-29T09:49:23.074Z,56.70
2023-01-29T09:49:59.216Z,57.47
2023-01-29T09:50:47.648Z,57.94
2023-01-29T09:51:30.573Z,58.23
2023-01-29T09:52:13.671Z,59.14
2023-01-29T09:52:54.072Z,60.03
2023-01-29T09:54:08.971Z,60.99
2023-01-29T09:55:01.706Z,60.80
2023-01-29T09:55:38.312Z,62.31
2023-01-29T09:56:21.269Z,63.96
2023-01-29T09:56:56.495Z,65.08
2023-01-29T09:59:19.760Z,63.01
2023-01-29T10:00:38.205Z,61.16
2023-01-29T10:01:29.370Z,60.18
2023-01-29T10:02:24.544Z,58.98
2023-01-29T10:03:00.221Z,57.47
2023-01-29T10:04:44.096Z,57.46
2023-01-29T10:05:26.347Z,58.71
2023-01-29T10:06:43.964Z,59.69
2023-01-29T10:07:27.077Z,60.46
2023-01-29T10:08:25.483Z,61.78
2023-01-29T10:09:13.443Z,62.73
2023-01-29T10:10:13.997Z,64.22
2023-01-29T10:11:08.957Z,65.52
2023-01-29T10:11:58.744Z,65.44
2023-01-29T10:12:53.199Z,62.36
2023-01-29T10:14:18.419Z,60.64
2023-01-29T10:14:57.749Z,58.13
2023-01-29T10:15:47.839Z,56.82
2023-01-29T10:16:28.364Z,56.31
2023-01-29T10:17:26.026Z,56.87
2023-01-29T10:18:15.582Z,57.44
2023-01-29T10:18:54.655Z,58.55
2023-01-29T10:20:40.373Z,60.64
2023-01-29T10:22:26.253Z,62.72
2023-01-29T10:24:04.669Z,64.76
2023-01-29T10:25:18.689Z,62.90
2023-01-29T10:26:29.935Z,60.13
2023-01-29T10:27:41.883Z,58.30
2023-01-29T10:28:37.183Z,57.27
2023-01-29T10:29:12.835Z,56.89
2023-01-29T10:29:47.551Z,57.39
2023-01-29T10:30:22.351Z,58.15
2023-01-29T10:30:58.776Z,58.42
2023-01-29T10:32:59.344Z,60.53
2023-01-29T10:34:42.925Z,61.37
2023-01-29T10:35:24.086Z,62.25
2023-01-29T10:36:00.635Z,63.52
2023-01-29T10:36:42.972Z,64.35
2023-01-29T10:38:29.432Z,64.01
2023-01-29T10:39:02.405Z,63.33
2023-01-29T10:40:21.918Z,60.46
2023-01-29T10:42:23.315Z,58.01
2023-01-29T10:43:04.601Z,56.68
2023-01-29T10:43:46.670Z,56.95
2023-01-29T10:44:42.081Z,58.00
2023-01-29T10:45:37.677Z,58.26
2023-01-29T11:21:27.379Z,59.95
2023-01-29T11:22:01.343Z,59.06
2023-01-29T11:22:34.893Z,57.71
2023-01-29T11:23:28.389Z,57.40
2023-01-29T11:25:16.946Z,59.31
2023-01-29T11:25:53.017Z,60.08
2023-01-29T11:28:02.951Z,63.50
2023-01-29T11:28:39.671Z,64.63
2023-01-29T11:29:30.789Z,64.83
2023-01-29T11:30:42.109Z,64.20
2023-01-29T11:31:17.973Z,62.41
2023-01-29T11:31:50.977Z,61.76
2023-01-29T11:33:31.029Z,59.69
2023-01-29T11:35:42.203Z,58.37
2023-01-29T11:36:32.933Z,59.21
2023-01-29T11:37:15.839Z,60.11
2023-01-29T11:37:48.778Z,61.12
2023-01-29T11:38:30.527Z,62.09
2023-01-29T11:39:21.571Z,63.02
2023-01-29T11:40:37.739Z,64.73
2023-01-29T11:41:18.953Z,64.40
2023-01-29T11:42:40.872Z,62.39
2023-01-29T11:43:18.359Z,61.12
2023-01-29T11:43:51.315Z,61.01
2023-01-29T11:44:36.635Z,60.76
2023-01-29T11:45:30.113Z,60.83
2023-01-29T11:48:14.495Z,59.38
2023-01-29T11:48:50.392Z,59.65
2023-01-29T11:49:33.285Z,61.07
2023-01-29T11:51:27.473Z,63.48
2023-01-29T11:52:02.685Z,64.32
2023-01-29T11:52:37.822Z,64.32
2023-01-29T11:53:29.730Z,63.76
2023-01-29T11:54:02.955Z,62.62
2023-01-29T11:56:23.916Z,61.39
2023-01-29T11:58:21.613Z,58.58
2023-01-29T11:58:55.883Z,57.78
2023-01-29T11:59:44.465Z,57.96
2023-01-29T12:00:21.125Z,58.52
2023-01-29T12:00:55.446Z,59.05
2023-01-29T12:01:36.436Z,59.79
2023-01-29T12:02:31.087Z,60.35
2023-01-29T12:05:18.147Z,64.33
2023-01-29T12:06:02.828Z,65.07
2023-01-29T12:07:57.825Z,63.99
2023-01-29T12:08:37.972Z,62.46
2023-01-29T12:10:39.120Z,60.35
2023-01-29T12:12:18.697Z,60.97
2023-01-29T12:14:24.789Z,57.92
2023-01-29T12:15:05.722Z,57.78
2023-01-29T12:15:39.401Z,58.53
2023-01-29T12:16:20.780Z,59.32
2023-01-29T12:17:12.689Z,60.09
2023-01-29T12:17:51.090Z,60.63
2023-01-29T12:18:24.054Z,61.68
2023-01-29T12:19:05.532Z,63.07
2023-01-29T12:19:58.773Z,63.92
2023-01-29T12:20:38.774Z,65.13
2023-01-29T12:22:21.472Z,63.65
2023-01-29T12:23:38.324Z,61.79
2023-01-29T12:24:42.223Z,62.01
2023-01-29T12:25:46.222Z,60.83
2023-01-29T12:26:30.882Z,59.15
2023-01-29T12:27:20.428Z,57.32
2023-01-29T12:27:58.214Z,57.64
2023-01-29T12:29:06.148Z,58.20
2023-01-29T12:30:24.652Z,59.57
2023-01-29T12:31:47.754Z,60.99
2023-01-29T12:32:27.015Z,62.41
2023-01-29T12:33:12.055Z,64.63
2023-01-29T12:33:54.371Z,64.43
2023-01-29T12:34:44.847Z,64.71
2023-01-29T12:35:38.636Z,64.32
2023-01-29T12:36:26.908Z,64.26
2023-01-29T12:39:22.991Z,59.48
2023-01-29T12:40:38.805Z,59.02
2023-01-29T12:41:24.719Z,58.89
2023-01-29T12:42:00.265Z,58.77
2023-01-29T12:42:33.227Z,60.22
2023-01-29T12:43:17.184Z,61.18
2023-01-29T12:43:53.037Z,62.03
2023-01-29T12:44:37.129Z,63.41
2023-01-29T12:45:11.052Z,64.71
2023-01-29T12:46:32.059Z,66.04
2023-01-29T12:47:47.518Z,64.67
2023-01-29T12:48:31.880Z,63.08
2023-01-29T12:49:07.544Z,61.52
2023-01-29T12:49:40.545Z,60.71
2023-01-29T12:50:43.008Z,60.54
2023-01-29T12:51:18.947Z,61.34
2023-01-29T12:52:36.778Z,59.71
2023-01-29T12:53:32.992Z,59.31
2023-01-29T12:54:10.685Z,58.08
2023-01-29T12:55:00.350Z,58.61
2023-01-29T12:55:37.639Z,59.01
2023-01-29T12:56:16.302Z,59.91
2023-01-29T12:56:51.296Z,61.12
2023-01-29T12:57:46.991Z,62.03
2023-01-29T12:58:28.728Z,63.41
2023-01-29T12:59:02.005Z,64.59
2023-01-29T13:02:37.435Z,61.84
2023-01-29T13:03:29.211Z,61.67
2023-01-29T13:05:18.144Z,58.90
2023-01-29T13:07:19.185Z,59.04
2023-01-29T13:07:58.275Z,59.99
2023-01-29T13:09:32.490Z,61.40
2023-01-29T13:10:12.364Z,62.73
2023-01-29T13:10:48.122Z,64.06
2023-01-29T13:11:28.323Z,64.61
2023-01-29T13:12:07.407Z,64.61
2023-01-29T13:12:41.189Z,64.22
2023-01-29T13:13:36.288Z,63.50
2023-01-29T13:14:29.022Z,62.39
2023-01-29T13:15:38.515Z,63.07
2023-01-29T13:16:12.850Z,61.67
2023-01-29T13:17:36.600Z,59.98
2023-01-29T13:18:29.625Z,58.46
2023-01-29T13:19:12.387Z,57.34
2023-01-29T13:19:46.689Z,57.76
2023-01-29T13:20:30.111Z,58.90
2023-01-29T13:21:03.759Z,58.66
2023-01-29T13:22:25.233Z,60.48